sensor_id;sensor_type;location;lat;lon;timestamp;P1;durP1;ratioP1;P2;durP2;ratioP2
2576;SDS011;1298;51.252;6.802;2022-07-12T00:00:14;25.80;;;23.80;;
2576;SDS011;1298;51.252;6.802;2022-07-12T00:03:00;26.13;;;24.13;;
2576;SDS011;1298;51.252;6.802;2022-07-12T00:05:45;25.00;;;23.10;;
2576;SDS011;1298;51.252;6.802;2022-07-12T00:08:31;25.67;;;23.67;;
2576;SDS011;1298;51.252;6.802;2022-07-12T00:11:16;25.95;;;23.95;;
2576;SDS011;1298;51.252;6.802;2022-07-12T00:14:04;25.13;;;23.23;;
2576;SDS011;1298;51.252;6.802;2022-07-12T00:16:50;26.90;;;24.80;;
2576;SDS011;1298;51.252;6.802;2022-07-12T00:19:35;25.88;;;23.88;;
2576;SDS011;1298;51.252;6.802;2022-07-12T00:22:21;26.05;;;24.05;;
2576;SDS011;1298;51.252;6.802;2022-07-12T00:25:07;25.60;;;23.70;;
2576;SDS011;1298;51.252;6.802;2022-07-12T00:27:53;25.60;;;23.60;;
2576;SDS011;1298;51.252;6.802;2022-07-12T00:30:40;26.13;;;24.13;;
2576;SDS011;1298;51.252;6.802;2022-07-12T00:33:26;26.27;;;24.23;;
2576;SDS011;1298;51.252;6.802;2022-07-12T00:36:11;25.83;;;23.92;;
2576;SDS011;1298;51.252;6.802;2022-07-12T00:38:57;25.88;;;23.92;;
2576;SDS011;1298;51.252;6.802;2022-07-12T00:41:43;25.80;;;23.80;;
2576;SDS011;1298;51.252;6.802;2022-07-12T00:44:32;26.17;;;24.17;;
2576;SDS011;1298;51.252;6.802;2022-07-12T00:47:22;26.05;;;24.05;;
2576;SDS011;1298;51.252;6.802;2022-07-12T00:50:17;26.50;;;24.40;;
2576;SDS011;1298;51.252;6.802;2022-07-12T00:53:04;26.05;;;24.05;;
2576;SDS011;1298;51.252;6.802;2022-07-12T00:55:52;26.13;;;24.13;;
2576;SDS011;1298;51.252;6.802;2022-07-12T00:58:39;25.88;;;23.90;;
2576;SDS011;1298;51.252;6.802;2022-07-12T01:01:25;25.10;;;23.20;;
2576;SDS011;1298;51.252;6.802;2022-07-12T01:04:12;25.77;;;23.88;;
2576;SDS011;1298;51.252;6.802;2022-07-12T01:07:02;25.48;;;23.58;;
2576;SDS011;1298;51.252;6.802;2022-07-12T01:09:49;25.40;;;23.50;;
2576;SDS011;1298;51.252;6.802;2022-07-12T01:12:36;25.35;;;23.45;;
2576;SDS011;1298;51.252;6.802;2022-07-12T01:15:22;25.17;;;23.27;;
2576;SDS011;1298;51.252;6.802;2022-07-12T01:18:08;24.65;;;22.85;;
2576;SDS011;1298;51.252;6.802;2022-07-12T01:20:56;25.80;;;23.85;;
2576;SDS011;1298;51.252;6.802;2022-07-12T01:23:42;25.80;;;23.88;;
2576;SDS011;1298;51.252;6.802;2022-07-12T01:26:30;24.52;;;22.83;;
2576;SDS011;1298;51.252;6.802;2022-07-12T01:29:16;23.90;;;22.20;;
2576;SDS011;1298;51.252;6.802;2022-07-12T01:32:01;24.50;;;22.70;;
2576;SDS011;1298;51.252;6.802;2022-07-12T01:35:03;24.30;;;22.55;;
2576;SDS011;1298;51.252;6.802;2022-07-12T01:37:50;24.05;;;22.35;;
2576;SDS011;1298;51.252;6.802;2022-07-12T01:40:37;24.00;;;22.30;;
2576;SDS011;1298;51.252;6.802;2022-07-12T01:43:22;24.40;;;22.60;;
2576;SDS011;1298;51.252;6.802;2022-07-12T01:46:08;25.90;;;24.00;;
2576;SDS011;1298;51.252;6.802;2022-07-12T01:48:53;25.40;;;23.50;;
2576;SDS011;1298;51.252;6.802;2022-07-12T01:51:39;24.00;;;22.30;;
2576;SDS011;1298;51.252;6.802;2022-07-12T01:54:25;24.60;;;22.80;;
2576;SDS011;1298;51.252;6.802;2022-07-12T01:57:12;24.20;;;22.50;;
2576;SDS011;1298;51.252;6.802;2022-07-12T01:59:57;24.10;;;22.40;;
2576;SDS011;1298;51.252;6.802;2022-07-12T02:02:45;23.75;;;22.05;;
2576;SDS011;1298;51.252;6.802;2022-07-12T02:05:31;23.67;;;21.98;;
2576;SDS011;1298;51.252;6.802;2022-07-12T02:08:16;23.00;;;21.40;;
2576;SDS011;1298;51.252;6.802;2022-07-12T02:11:02;22.45;;;20.88;;
2576;SDS011;1298;51.252;6.802;2022-07-12T02:13:49;23.13;;;21.52;;
2576;SDS011;1298;51.252;6.802;2022-07-12T02:16:34;22.13;;;20.63;;
2576;SDS011;1298;51.252;6.802;2022-07-12T02:19:20;21.92;;;20.42;;
2576;SDS011;1298;51.252;6.802;2022-07-12T02:22:05;24.67;;;22.88;;
2576;SDS011;1298;51.252;6.802;2022-07-12T02:24:51;21.80;;;20.30;;
2576;SDS011;1298;51.252;6.802;2022-07-12T02:27:37;21.42;;;20.02;;
2576;SDS011;1298;51.252;6.802;2022-07-12T02:30:24;22.80;;;21.25;;
2576;SDS011;1298;51.252;6.802;2022-07-12T02:33:10;23.45;;;21.85;;
2576;SDS011;1298;51.252;6.802;2022-07-12T02:35:55;23.13;;;21.52;;
2576;SDS011;1298;51.252;6.802;2022-07-12T02:38:41;24.67;;;22.88;;
2576;SDS011;1298;51.252;6.802;2022-07-12T02:41:26;23.92;;;22.23;;
2576;SDS011;1298;51.252;6.802;2022-07-12T02:44:11;23.92;;;22.23;;
2576;SDS011;1298;51.252;6.802;2022-07-12T02:46:58;24.48;;;22.67;;
2576;SDS011;1298;51.252;6.802;2022-07-12T02:49:44;23.45;;;21.75;;
2576;SDS011;1298;51.252;6.802;2022-07-12T02:52:29;24.23;;;22.48;;
2576;SDS011;1298;51.252;6.802;2022-07-12T02:55:15;23.63;;;21.92;;
2576;SDS011;1298;51.252;6.802;2022-07-12T02:58:01;23.23;;;21.63;;
2576;SDS011;1298;51.252;6.802;2022-07-12T03:00:46;24.65;;;22.95;;
2576;SDS011;1298;51.252;6.802;2022-07-12T03:03:33;23.30;;;21.70;;
2576;SDS011;1298;51.252;6.802;2022-07-12T03:06:19;23.15;;;21.55;;
2576;SDS011;1298;51.252;6.802;2022-07-12T03:09:04;24.63;;;22.83;;
2576;SDS011;1298;51.252;6.802;2022-07-12T03:11:50;23.25;;;21.65;;
2576;SDS011;1298;51.252;6.802;2022-07-12T03:14:35;22.52;;;21.02;;
2576;SDS011;1298;51.252;6.802;2022-07-12T03:17:20;22.25;;;20.75;;
2576;SDS011;1298;51.252;6.802;2022-07-12T03:20:08;22.40;;;21.00;;
2576;SDS011;1298;51.252;6.802;2022-07-12T03:22:55;22.20;;;20.80;;
2576;SDS011;1298;51.252;6.802;2022-07-12T03:25:41;21.60;;;20.20;;
2576;SDS011;1298;51.252;6.802;2022-07-12T03:28:26;21.60;;;20.20;;
2576;SDS011;1298;51.252;6.802;2022-07-12T03:31:13;21.83;;;20.42;;
2576;SDS011;1298;51.252;6.802;2022-07-12T03:33:58;22.35;;;20.95;;
2576;SDS011;1298;51.252;6.802;2022-07-12T03:36:45;22.15;;;20.75;;
2576;SDS011;1298;51.252;6.802;2022-07-12T03:39:30;22.63;;;21.23;;
2576;SDS011;1298;51.252;6.802;2022-07-12T03:42:16;21.70;;;20.30;;
2576;SDS011;1298;51.252;6.802;2022-07-12T03:45:01;21.33;;;19.95;;
2576;SDS011;1298;51.252;6.802;2022-07-12T03:47:47;22.98;;;21.48;;
2576;SDS011;1298;51.252;6.802;2022-07-12T03:50:33;22.67;;;21.27;;
2576;SDS011;1298;51.252;6.802;2022-07-12T03:53:20;21.95;;;20.55;;
2576;SDS011;1298;51.252;6.802;2022-07-12T03:56:06;22.90;;;21.40;;
2576;SDS011;1298;51.252;6.802;2022-07-12T03:58:52;21.15;;;19.75;;
2576;SDS011;1298;51.252;6.802;2022-07-12T04:01:37;23.75;;;22.15;;
2576;SDS011;1298;51.252;6.802;2022-07-12T04:04:23;24.02;;;22.27;;
2576;SDS011;1298;51.252;6.802;2022-07-12T04:07:09;25.02;;;23.23;;
2576;SDS011;1298;51.252;6.802;2022-07-12T04:09:57;23.80;;;22.10;;
2576;SDS011;1298;51.252;6.802;2022-07-12T04:12:42;23.60;;;22.00;;
2576;SDS011;1298;51.252;6.802;2022-07-12T04:15:28;24.33;;;22.52;;
2576;SDS011;1298;51.252;6.802;2022-07-12T04:18:13;26.70;;;24.60;;
2576;SDS011;1298;51.252;6.802;2022-07-12T04:20:59;26.63;;;24.52;;
2576;SDS011;1298;51.252;6.802;2022-07-12T04:23:45;25.70;;;23.70;;
2576;SDS011;1298;51.252;6.802;2022-07-12T04:26:32;26.33;;;24.33;;
2576;SDS011;1298;51.252;6.802;2022-07-12T04:29:18;25.95;;;23.95;;
2576;SDS011;1298;51.252;6.802;2022-07-12T04:32:04;25.65;;;23.65;;
2576;SDS011;1298;51.252;6.802;2022-07-12T04:34:50;25.60;;;23.70;;
2576;SDS011;1298;51.252;6.802;2022-07-12T04:37:35;25.83;;;23.83;;
2576;SDS011;1298;51.252;6.802;2022-07-12T04:40:20;25.70;;;23.70;;
2576;SDS011;1298;51.252;6.802;2022-07-12T04:43:07;25.88;;;23.90;;
2576;SDS011;1298;51.252;6.802;2022-07-12T04:45:53;26.10;;;24.10;;
2576;SDS011;1298;51.252;6.802;2022-07-12T04:48:39;26.20;;;24.20;;
2576;SDS011;1298;51.252;6.802;2022-07-12T04:51:24;26.25;;;24.25;;
2576;SDS011;1298;51.252;6.802;2022-07-12T04:54:10;25.83;;;23.88;;
2576;SDS011;1298;51.252;6.802;2022-07-12T04:56:56;25.40;;;23.50;;
2576;SDS011;1298;51.252;6.802;2022-07-12T04:59:42;24.90;;;23.10;;
2576;SDS011;1298;51.252;6.802;2022-07-12T05:02:28;24.42;;;22.63;;
2576;SDS011;1298;51.252;6.802;2022-07-12T05:05:14;24.23;;;22.42;;
2576;SDS011;1298;51.252;6.802;2022-07-12T05:07:59;24.00;;;22.30;;
2576;SDS011;1298;51.252;6.802;2022-07-12T05:10:45;23.98;;;22.17;;
2576;SDS011;1298;51.252;6.802;2022-07-12T05:13:30;23.73;;;22.00;;
2576;SDS011;1298;51.252;6.802;2022-07-12T05:16:17;24.20;;;22.40;;
2576;SDS011;1298;51.252;6.802;2022-07-12T05:19:02;24.25;;;22.45;;
2576;SDS011;1298;51.252;6.802;2022-07-12T05:21:48;24.83;;;23.02;;
2576;SDS011;1298;51.252;6.802;2022-07-12T05:24:33;23.50;;;21.88;;
2576;SDS011;1298;51.252;6.802;2022-07-12T05:27:19;25.60;;;23.83;;
2576;SDS011;1298;51.252;6.802;2022-07-12T05:30:05;23.75;;;22.05;;
2576;SDS011;1298;51.252;6.802;2022-07-12T05:32:52;23.80;;;22.10;;
2576;SDS011;1298;51.252;6.802;2022-07-12T05:35:38;24.00;;;22.30;;
2576;SDS011;1298;51.252;6.802;2022-07-12T05:38:23;23.90;;;22.20;;
2576;SDS011;1298;51.252;6.802;2022-07-12T05:41:09;24.77;;;23.08;;
2576;SDS011;1298;51.252;6.802;2022-07-12T05:43:54;23.80;;;22.10;;
2576;SDS011;1298;51.252;6.802;2022-07-12T05:46:40;24.17;;;22.48;;
2576;SDS011;1298;51.252;6.802;2022-07-12T05:49:27;24.25;;;22.55;;
2576;SDS011;1298;51.252;6.802;2022-07-12T05:52:13;23.65;;;21.95;;
2576;SDS011;1298;51.252;6.802;2022-07-12T05:55:16;23.67;;;22.08;;
2576;SDS011;1298;51.252;6.802;2022-07-12T05:58:01;23.70;;;22.10;;
2576;SDS011;1298;51.252;6.802;2022-07-12T06:00:47;23.27;;;21.67;;
2576;SDS011;1298;51.252;6.802;2022-07-12T06:03:33;24.27;;;22.58;;
2576;SDS011;1298;51.252;6.802;2022-07-12T06:06:20;24.17;;;22.48;;
2576;SDS011;1298;51.252;6.802;2022-07-12T06:09:05;23.75;;;22.05;;
2576;SDS011;1298;51.252;6.802;2022-07-12T06:11:51;23.40;;;21.70;;
2576;SDS011;1298;51.252;6.802;2022-07-12T06:14:36;25.10;;;23.30;;
2576;SDS011;1298;51.252;6.802;2022-07-12T06:17:22;24.67;;;22.88;;
2576;SDS011;1298;51.252;6.802;2022-07-12T06:20:08;24.00;;;22.20;;
2576;SDS011;1298;51.252;6.802;2022-07-12T06:22:55;25.10;;;23.30;;
2576;SDS011;1298;51.252;6.802;2022-07-12T06:25:40;24.73;;;22.92;;
2576;SDS011;1298;51.252;6.802;2022-07-12T06:28:26;25.00;;;23.20;;
2576;SDS011;1298;51.252;6.802;2022-07-12T06:31:11;24.85;;;23.05;;
2576;SDS011;1298;51.252;6.802;2022-07-12T06:33:57;24.90;;;23.10;;
2576;SDS011;1298;51.252;6.802;2022-07-12T06:36:42;25.15;;;23.25;;
2576;SDS011;1298;51.252;6.802;2022-07-12T06:39:30;25.10;;;23.20;;
2576;SDS011;1298;51.252;6.802;2022-07-12T06:42:16;25.48;;;23.58;;
2576;SDS011;1298;51.252;6.802;2022-07-12T06:45:01;25.27;;;23.38;;
2576;SDS011;1298;51.252;6.802;2022-07-12T06:47:47;25.95;;;23.95;;
2576;SDS011;1298;51.252;6.802;2022-07-12T06:50:33;26.23;;;24.23;;
2576;SDS011;1298;51.252;6.802;2022-07-12T06:53:19;26.05;;;24.05;;
2576;SDS011;1298;51.252;6.802;2022-07-12T06:56:06;26.10;;;24.10;;
2576;SDS011;1298;51.252;6.802;2022-07-12T06:58:51;26.48;;;24.48;;
2576;SDS011;1298;51.252;6.802;2022-07-12T07:01:37;25.38;;;23.48;;
2576;SDS011;1298;51.252;6.802;2022-07-12T07:04:23;25.20;;;23.30;;
2576;SDS011;1298;51.252;6.802;2022-07-12T07:07:09;26.70;;;24.70;;
2576;SDS011;1298;51.252;6.802;2022-07-12T07:09:56;23.85;;;22.05;;
2576;SDS011;1298;51.252;6.802;2022-07-12T07:12:43;24.45;;;22.65;;
2576;SDS011;1298;51.252;6.802;2022-07-12T07:15:28;24.20;;;22.50;;
2576;SDS011;1298;51.252;6.802;2022-07-12T07:18:14;25.20;;;23.30;;
2576;SDS011;1298;51.252;6.802;2022-07-12T07:20:59;25.25;;;23.35;;
2576;SDS011;1298;51.252;6.802;2022-07-12T07:23:45;25.38;;;23.48;;
2576;SDS011;1298;51.252;6.802;2022-07-12T07:26:30;26.73;;;24.73;;
2576;SDS011;1298;51.252;6.802;2022-07-12T07:29:19;26.23;;;24.23;;
2576;SDS011;1298;51.252;6.802;2022-07-12T07:32:23;26.48;;;24.48;;
2576;SDS011;1298;51.252;6.802;2022-07-12T07:35:08;25.13;;;23.23;;
2576;SDS011;1298;51.252;6.802;2022-07-12T07:37:54;24.70;;;22.90;;
2576;SDS011;1298;51.252;6.802;2022-07-12T07:40:39;25.65;;;23.75;;
2576;SDS011;1298;51.252;6.802;2022-07-12T07:43:25;25.35;;;23.45;;
2576;SDS011;1298;51.252;6.802;2022-07-12T07:46:12;26.00;;;24.00;;
2576;SDS011;1298;51.252;6.802;2022-07-12T07:48:57;26.20;;;24.20;;
2576;SDS011;1298;51.252;6.802;2022-07-12T07:51:43;25.88;;;23.88;;
2576;SDS011;1298;51.252;6.802;2022-07-12T07:54:29;26.50;;;24.40;;
2576;SDS011;1298;51.252;6.802;2022-07-12T07:57:14;26.77;;;24.65;;
2576;SDS011;1298;51.252;6.802;2022-07-12T08:00:00;26.80;;;24.70;;
2576;SDS011;1298;51.252;6.802;2022-07-12T08:02:46;26.92;;;24.83;;
2576;SDS011;1298;51.252;6.802;2022-07-12T08:05:32;26.35;;;24.25;;
2576;SDS011;1298;51.252;6.802;2022-07-12T08:08:17;26.10;;;24.05;;
2576;SDS011;1298;51.252;6.802;2022-07-12T08:11:03;26.10;;;24.10;;
2576;SDS011;1298;51.252;6.802;2022-07-12T08:13:49;26.20;;;24.20;;
2576;SDS011;1298;51.252;6.802;2022-07-12T08:16:34;26.98;;;24.80;;
2576;SDS011;1298;51.252;6.802;2022-07-12T08:19:21;26.90;;;24.70;;
2576;SDS011;1298;51.252;6.802;2022-07-12T08:22:07;27.13;;;24.90;;
2576;SDS011;1298;51.252;6.802;2022-07-12T08:24:53;27.92;;;25.63;;
2576;SDS011;1298;51.252;6.802;2022-07-12T08:27:40;29.15;;;26.75;;
2576;SDS011;1298;51.252;6.802;2022-07-12T08:30:25;28.75;;;26.25;;
2576;SDS011;1298;51.252;6.802;2022-07-12T08:33:11;30.00;;;27.40;;
2576;SDS011;1298;51.252;6.802;2022-07-12T08:35:58;29.63;;;26.95;;
2576;SDS011;1298;51.252;6.802;2022-07-12T08:38:45;30.77;;;27.95;;
2576;SDS011;1298;51.252;6.802;2022-07-12T08:41:30;31.02;;;28.25;;
2576;SDS011;1298;51.252;6.802;2022-07-12T08:44:16;30.25;;;27.55;;
2576;SDS011;1298;51.252;6.802;2022-07-12T08:47:02;29.52;;;26.92;;
2576;SDS011;1298;51.252;6.802;2022-07-12T08:52:56;30.02;;;27.33;;
2576;SDS011;1298;51.252;6.802;2022-07-12T08:55:42;29.77;;;27.15;;
2576;SDS011;1298;51.252;6.802;2022-07-12T08:58:27;29.17;;;26.67;;
2576;SDS011;1298;51.252;6.802;2022-07-12T09:01:13;29.00;;;26.60;;
2576;SDS011;1298;51.252;6.802;2022-07-12T09:04:11;30.30;;;27.60;;
2576;SDS011;1298;51.252;6.802;2022-07-12T09:06:58;30.58;;;27.88;;
2576;SDS011;1298;51.252;6.802;2022-07-12T09:10:00;30.48;;;27.88;;
2576;SDS011;1298;51.252;6.802;2022-07-12T09:12:47;29.92;;;27.23;;
2576;SDS011;1298;51.252;6.802;2022-07-12T09:15:36;29.45;;;26.85;;
2576;SDS011;1298;51.252;6.802;2022-07-12T09:18:22;30.33;;;27.73;;
2576;SDS011;1298;51.252;6.802;2022-07-12T09:21:20;28.83;;;26.42;;
2576;SDS011;1298;51.252;6.802;2022-07-12T09:24:07;28.67;;;26.27;;
2576;SDS011;1298;51.252;6.802;2022-07-12T09:26:59;27.75;;;25.45;;
2576;SDS011;1298;51.252;6.802;2022-07-12T09:29:46;29.00;;;26.48;;
2576;SDS011;1298;51.252;6.802;2022-07-12T09:32:31;29.77;;;27.15;;
2576;SDS011;1298;51.252;6.802;2022-07-12T09:35:35;29.15;;;26.55;;
2576;SDS011;1298;51.252;6.802;2022-07-12T09:38:38;30.25;;;27.45;;
2576;SDS011;1298;51.252;6.802;2022-07-12T09:41:24;30.23;;;27.52;;
2576;SDS011;1298;51.252;6.802;2022-07-12T09:44:12;29.90;;;27.30;;
2576;SDS011;1298;51.252;6.802;2022-07-12T09:46:58;29.42;;;26.88;;
2576;SDS011;1298;51.252;6.802;2022-07-12T09:49:44;29.52;;;27.02;;
2576;SDS011;1298;51.252;6.802;2022-07-12T09:52:30;29.00;;;26.60;;
2576;SDS011;1298;51.252;6.802;2022-07-12T09:55:19;29.30;;;26.80;;
2576;SDS011;1298;51.252;6.802;2022-07-12T09:58:09;28.67;;;26.27;;
2576;SDS011;1298;51.252;6.802;2022-07-12T10:00:59;28.98;;;26.58;;
2576;SDS011;1298;51.252;6.802;2022-07-12T10:03:45;27.42;;;25.23;;
2576;SDS011;1298;51.252;6.802;2022-07-12T10:06:30;27.30;;;25.20;;
2576;SDS011;1298;51.252;6.802;2022-07-12T10:09:16;27.40;;;25.20;;
2576;SDS011;1298;51.252;6.802;2022-07-12T10:12:02;27.75;;;25.52;;
2576;SDS011;1298;51.252;6.802;2022-07-12T10:14:49;27.63;;;25.42;;
2576;SDS011;1298;51.252;6.802;2022-07-12T10:17:41;26.80;;;24.70;;
2576;SDS011;1298;51.252;6.802;2022-07-12T10:20:35;26.02;;;24.13;;
2576;SDS011;1298;51.252;6.802;2022-07-12T10:23:27;25.88;;;23.98;;
2576;SDS011;1298;51.252;6.802;2022-07-12T10:26:23;27.17;;;25.10;;
2576;SDS011;1298;51.252;6.802;2022-07-12T10:29:09;25.52;;;23.73;;
2576;SDS011;1298;51.252;6.802;2022-07-12T10:32:04;24.52;;;22.83;;
2576;SDS011;1298;51.252;6.802;2022-07-12T10:35:07;21.60;;;20.30;;
2576;SDS011;1298;51.252;6.802;2022-07-12T10:38:15;19.85;;;18.73;;
2576;SDS011;1298;51.252;6.802;2022-07-12T10:41:15;20.02;;;18.92;;
2576;SDS011;1298;51.252;6.802;2022-07-12T10:44:04;20.42;;;19.23;;
2576;SDS011;1298;51.252;6.802;2022-07-12T10:46:57;20.45;;;19.25;;
2576;SDS011;1298;51.252;6.802;2022-07-12T10:49:47;20.70;;;19.50;;
2576;SDS011;1298;51.252;6.802;2022-07-12T10:52:37;19.77;;;18.67;;
2576;SDS011;1298;51.252;6.802;2022-07-12T10:55:22;22.40;;;21.00;;
2576;SDS011;1298;51.252;6.802;2022-07-12T10:58:08;19.95;;;18.85;;
2576;SDS011;1298;51.252;6.802;2022-07-12T11:00:53;18.52;;;17.52;;
2576;SDS011;1298;51.252;6.802;2022-07-12T11:03:40;18.10;;;17.20;;
2576;SDS011;1298;51.252;6.802;2022-07-12T11:06:27;17.60;;;16.70;;
2576;SDS011;1298;51.252;6.802;2022-07-12T11:09:15;19.75;;;18.65;;
2576;SDS011;1298;51.252;6.802;2022-07-12T11:12:01;20.23;;;19.08;;
2576;SDS011;1298;51.252;6.802;2022-07-12T11:14:50;22.00;;;20.60;;
2576;SDS011;1298;51.252;6.802;2022-07-12T11:17:36;24.90;;;23.10;;
2576;SDS011;1298;51.252;6.802;2022-07-12T11:20:21;25.10;;;23.30;;
2576;SDS011;1298;51.252;6.802;2022-07-12T11:23:13;21.55;;;20.25;;
2576;SDS011;1298;51.252;6.802;2022-07-12T11:26:01;20.45;;;19.25;;
2576;SDS011;1298;51.252;6.802;2022-07-12T11:28:47;21.55;;;20.25;;
2576;SDS011;1298;51.252;6.802;2022-07-12T11:31:33;22.95;;;21.50;;
2576;SDS011;1298;51.252;6.802;2022-07-12T11:34:19;21.10;;;19.90;;
2576;SDS011;1298;51.252;6.802;2022-07-12T11:37:05;20.45;;;19.25;;
2576;SDS011;1298;51.252;6.802;2022-07-12T11:39:50;22.98;;;21.58;;
2576;SDS011;1298;51.252;6.802;2022-07-12T11:42:38;22.40;;;20.95;;
2576;SDS011;1298;51.252;6.802;2022-07-12T11:45:37;21.42;;;20.13;;
2576;SDS011;1298;51.252;6.802;2022-07-12T11:48:23;19.50;;;18.40;;
2576;SDS011;1298;51.252;6.802;2022-07-12T11:51:10;19.00;;;18.00;;
2576;SDS011;1298;51.252;6.802;2022-07-12T11:53:57;19.60;;;18.50;;
2576;SDS011;1298;51.252;6.802;2022-07-12T11:56:42;21.58;;;20.25;;
2576;SDS011;1298;51.252;6.802;2022-07-12T11:59:29;23.70;;;22.20;;
2576;SDS011;1298;51.252;6.802;2022-07-12T12:02:15;21.77;;;20.48;;
2576;SDS011;1298;51.252;6.802;2022-07-12T12:05:01;23.00;;;21.50;;
2576;SDS011;1298;51.252;6.802;2022-07-12T12:07:46;25.02;;;23.33;;
2576;SDS011;1298;51.252;6.802;2022-07-12T12:10:32;23.33;;;21.83;;
2576;SDS011;1298;51.252;6.802;2022-07-12T12:13:18;21.25;;;19.95;;
2576;SDS011;1298;51.252;6.802;2022-07-12T12:16:05;21.98;;;20.67;;
2576;SDS011;1298;51.252;6.802;2022-07-12T12:18:50;26.13;;;24.23;;
2576;SDS011;1298;51.252;6.802;2022-07-12T12:21:36;23.73;;;22.13;;
2576;SDS011;1298;51.252;6.802;2022-07-12T12:24:22;24.55;;;22.85;;
2576;SDS011;1298;51.252;6.802;2022-07-12T12:27:22;24.20;;;22.70;;
2576;SDS011;1298;51.252;6.802;2022-07-12T12:30:08;24.52;;;22.92;;
2576;SDS011;1298;51.252;6.802;2022-07-12T12:32:55;25.13;;;23.42;;
2576;SDS011;1298;51.252;6.802;2022-07-12T12:35:42;23.35;;;21.85;;
2576;SDS011;1298;51.252;6.802;2022-07-12T12:38:27;22.90;;;21.40;;
2576;SDS011;1298;51.252;6.802;2022-07-12T12:41:14;21.70;;;20.40;;
2576;SDS011;1298;51.252;6.802;2022-07-12T12:44:00;22.30;;;20.90;;
2576;SDS011;1298;51.252;6.802;2022-07-12T12:46:46;21.35;;;20.05;;
2576;SDS011;1298;51.252;6.802;2022-07-12T12:49:44;20.10;;;19.00;;
2576;SDS011;1298;51.252;6.802;2022-07-12T12:52:30;21.05;;;19.85;;
2576;SDS011;1298;51.252;6.802;2022-07-12T12:55:16;21.40;;;20.10;;
2576;SDS011;1298;51.252;6.802;2022-07-12T12:58:01;33.53;;;29.25;;
2576;SDS011;1298;51.252;6.802;2022-07-12T13:00:47;37.90;;;32.35;;
2576;SDS011;1298;51.252;6.802;2022-07-12T13:03:34;32.70;;;29.30;;
2576;SDS011;1298;51.252;6.802;2022-07-12T13:06:21;31.25;;;28.15;;
2576;SDS011;1298;51.252;6.802;2022-07-12T13:09:07;32.30;;;29.10;;
2576;SDS011;1298;51.252;6.802;2022-07-12T13:11:53;31.35;;;28.42;;
2576;SDS011;1298;51.252;6.802;2022-07-12T13:14:38;29.95;;;27.25;;
2576;SDS011;1298;51.252;6.802;2022-07-12T13:17:24;28.52;;;26.02;;
2576;SDS011;1298;51.252;6.802;2022-07-12T13:20:10;28.90;;;26.50;;
2576;SDS011;1298;51.252;6.802;2022-07-12T13:22:58;26.23;;;24.20;;
2576;SDS011;1298;51.252;6.802;2022-07-12T13:25:44;26.35;;;24.30;;
2576;SDS011;1298;51.252;6.802;2022-07-12T13:28:29;25.65;;;23.75;;
2576;SDS011;1298;51.252;6.802;2022-07-12T13:31:16;25.75;;;23.85;;
2576;SDS011;1298;51.252;6.802;2022-07-12T13:34:01;24.98;;;23.17;;
2576;SDS011;1298;51.252;6.802;2022-07-12T13:36:47;24.77;;;22.98;;
2576;SDS011;1298;51.252;6.802;2022-07-12T13:39:34;25.02;;;23.23;;
2576;SDS011;1298;51.252;6.802;2022-07-12T13:42:37;24.92;;;23.13;;
2576;SDS011;1298;51.252;6.802;2022-07-12T13:45:24;24.10;;;22.40;;
2576;SDS011;1298;51.252;6.802;2022-07-12T13:48:10;24.50;;;22.80;;
2576;SDS011;1298;51.252;6.802;2022-07-12T13:50:56;24.70;;;23.00;;
2576;SDS011;1298;51.252;6.802;2022-07-12T13:53:41;24.05;;;22.35;;
2576;SDS011;1298;51.252;6.802;2022-07-12T13:56:28;24.65;;;22.95;;
2576;SDS011;1298;51.252;6.802;2022-07-12T13:59:14;24.33;;;22.63;;
2576;SDS011;1298;51.252;6.802;2022-07-12T14:01:59;24.27;;;22.60;;
2576;SDS011;1298;51.252;6.802;2022-07-12T14:04:45;22.63;;;21.17;;
2576;SDS011;1298;51.252;6.802;2022-07-12T14:07:30;23.00;;;21.50;;
2576;SDS011;1298;51.252;6.802;2022-07-12T14:10:16;23.35;;;21.85;;
2576;SDS011;1298;51.252;6.802;2022-07-12T14:13:03;22.85;;;21.45;;
2576;SDS011;1298;51.252;6.802;2022-07-12T14:15:50;21.38;;;20.08;;
2576;SDS011;1298;51.252;6.802;2022-07-12T14:18:35;25.20;;;23.40;;
2576;SDS011;1298;51.252;6.802;2022-07-12T14:21:21;38.03;;;30.15;;
2576;SDS011;1298;51.252;6.802;2022-07-12T14:24:07;41.20;;;31.13;;
2576;SDS011;1298;51.252;6.802;2022-07-12T14:26:54;45.08;;;32.08;;
2576;SDS011;1298;51.252;6.802;2022-07-12T14:29:41;46.10;;;32.08;;
2576;SDS011;1298;51.252;6.802;2022-07-12T14:32:27;46.75;;;32.67;;
2576;SDS011;1298;51.252;6.802;2022-07-12T14:35:12;46.35;;;32.55;;
2576;SDS011;1298;51.252;6.802;2022-07-12T14:37:58;45.58;;;31.52;;
2576;SDS011;1298;51.252;6.802;2022-07-12T14:40:44;43.38;;;31.05;;
2576;SDS011;1298;51.252;6.802;2022-07-12T14:43:29;42.22;;;30.92;;
2576;SDS011;1298;51.252;6.802;2022-07-12T14:46:16;42.45;;;31.35;;
2576;SDS011;1298;51.252;6.802;2022-07-12T14:49:02;40.25;;;30.88;;
2576;SDS011;1298;51.252;6.802;2022-07-12T14:51:47;39.13;;;30.38;;
2576;SDS011;1298;51.252;6.802;2022-07-12T14:54:33;39.50;;;30.60;;
2576;SDS011;1298;51.252;6.802;2022-07-12T14:57:18;36.50;;;29.50;;
2576;SDS011;1298;51.252;6.802;2022-07-12T15:00:05;31.80;;;28.40;;
2576;SDS011;1298;51.252;6.802;2022-07-12T15:02:54;31.45;;;28.15;;
2576;SDS011;1298;51.252;6.802;2022-07-12T15:05:43;30.80;;;27.75;;
2576;SDS011;1298;51.252;6.802;2022-07-12T15:08:29;29.70;;;26.92;;
2576;SDS011;1298;51.252;6.802;2022-07-12T15:11:15;29.23;;;26.52;;
2576;SDS011;1298;51.252;6.802;2022-07-12T15:14:01;30.63;;;27.63;;
2576;SDS011;1298;51.252;6.802;2022-07-12T15:16:46;29.80;;;26.90;;
2576;SDS011;1298;51.252;6.802;2022-07-12T15:19:34;30.58;;;27.52;;
2576;SDS011;1298;51.252;6.802;2022-07-12T15:22:19;28.77;;;26.17;;
2576;SDS011;1298;51.252;6.802;2022-07-12T15:25:05;26.88;;;24.58;;
2576;SDS011;1298;51.252;6.802;2022-07-12T15:27:51;28.73;;;26.25;;
2576;SDS011;1298;51.252;6.802;2022-07-12T15:30:36;24.80;;;23.00;;
2576;SDS011;1298;51.252;6.802;2022-07-12T15:33:22;26.30;;;24.20;;
2576;SDS011;1298;51.252;6.802;2022-07-12T15:36:10;25.70;;;23.80;;
2576;SDS011;1298;51.252;6.802;2022-07-12T15:38:55;25.90;;;23.90;;
2576;SDS011;1298;51.252;6.802;2022-07-12T15:41:41;25.90;;;23.90;;
2576;SDS011;1298;51.252;6.802;2022-07-12T15:44:26;24.90;;;23.00;;
2576;SDS011;1298;51.252;6.802;2022-07-12T15:47:12;26.75;;;24.65;;
2576;SDS011;1298;51.252;6.802;2022-07-12T15:49:58;26.80;;;24.70;;
2576;SDS011;1298;51.252;6.802;2022-07-12T15:52:45;27.30;;;25.10;;
2576;SDS011;1298;51.252;6.802;2022-07-12T15:55:48;27.55;;;25.25;;
2576;SDS011;1298;51.252;6.802;2022-07-12T15:58:35;27.88;;;25.48;;
2576;SDS011;1298;51.252;6.802;2022-07-12T16:01:22;29.23;;;26.63;;
2576;SDS011;1298;51.252;6.802;2022-07-12T16:04:09;29.05;;;26.35;;
2576;SDS011;1298;51.252;6.802;2022-07-12T16:06:55;29.30;;;26.60;;
2576;SDS011;1298;51.252;6.802;2022-07-12T16:09:44;28.40;;;25.90;;
2576;SDS011;1298;51.252;6.802;2022-07-12T16:12:30;28.33;;;25.83;;
2576;SDS011;1298;51.252;6.802;2022-07-12T16:15:19;28.55;;;26.00;;
2576;SDS011;1298;51.252;6.802;2022-07-12T16:18:05;28.42;;;25.92;;
2576;SDS011;1298;51.252;6.802;2022-07-12T16:20:51;28.50;;;26.00;;
2576;SDS011;1298;51.252;6.802;2022-07-12T16:23:38;27.80;;;25.40;;
2576;SDS011;1298;51.252;6.802;2022-07-12T16:26:25;27.70;;;25.30;;
2576;SDS011;1298;51.252;6.802;2022-07-12T16:29:11;27.13;;;24.88;;
2576;SDS011;1298;51.252;6.802;2022-07-12T16:31:58;27.65;;;25.25;;
2576;SDS011;1298;51.252;6.802;2022-07-12T16:34:46;25.92;;;23.92;;
2576;SDS011;1298;51.252;6.802;2022-07-12T16:37:32;23.70;;;22.00;;
2576;SDS011;1298;51.252;6.802;2022-07-12T16:40:17;24.00;;;22.30;;
2576;SDS011;1298;51.252;6.802;2022-07-12T16:43:05;24.55;;;22.80;;
2576;SDS011;1298;51.252;6.802;2022-07-12T16:45:51;24.20;;;22.50;;
2576;SDS011;1298;51.252;6.802;2022-07-12T16:48:38;24.90;;;23.10;;